createdAt,value
2023-02-26T00:01:31.626Z,2.78
2023-02-26T00:04:01.632Z,4.37
2023-02-26T00:06:29.969Z,2.72
2023-02-26T00:08:57.670Z,2.62
2023-02-26T00:11:25.961Z,2.08
2023-02-26T00:13:53.728Z,3.00
2023-02-26T00:16:36.331Z,2.40
2023-02-26T00:19:06.153Z,3.30
2023-02-26T00:21:35.132Z,2.28
2023-02-26T00:24:02.794Z,2.95
2023-02-26T00:26:32.057Z,2.22
2023-02-26T00:29:00.116Z,2.97
2023-02-26T00:31:28.019Z,3.80
2023-02-26T00:33:57.321Z,3.60
2023-02-26T00:36:45.112Z,3.28
2023-02-26T00:39:18.954Z,2.37
2023-02-26T00:41:46.524Z,2.70
2023-02-26T00:44:14.455Z,2.97
2023-02-26T00:46:47.877Z,2.15
2023-02-26T00:49:18.692Z,2.58
2023-02-26T00:51:45.960Z,2.92
2023-02-26T00:54:19.570Z,2.80
2023-02-26T00:56:48.524Z,2.30
2023-02-26T00:59:16.974Z,2.62
2023-02-26T01:01:45.249Z,2.92
2023-02-26T01:04:15.219Z,3.70
2023-02-26T01:06:46.213Z,2.55
2023-02-26T01:09:25.765Z,2.50
2023-02-26T01:11:55.920Z,3.80
2023-02-26T01:14:24.611Z,3.80
2023-02-26T01:17:03.268Z,2.85
2023-02-26T01:19:46.505Z,2.60
2023-02-26T01:22:33.792Z,3.30
2023-02-26T01:25:08.074Z,3.78
2023-02-26T01:27:35.964Z,2.83
2023-02-26T01:30:05.680Z,2.03
2023-02-26T01:32:49.702Z,3.50
2023-02-26T01:35:21.240Z,2.47
2023-02-26T01:38:05.100Z,4.28
2023-02-26T01:41:03.853Z,2.70
2023-02-26T01:43:36.150Z,3.45
2023-02-26T01:46:35.480Z,3.08
2023-02-26T01:49:04.538Z,3.20
2023-02-26T01:51:55.661Z,3.15
2023-02-26T01:54:34.482Z,4.00
2023-02-26T01:57:04.984Z,2.90
2023-02-26T01:59:34.881Z,2.60
2023-02-26T02:02:04.606Z,2.65
2023-02-26T02:04:33.562Z,2.92
2023-02-26T02:07:02.194Z,3.42
2023-02-26T02:09:29.741Z,3.03
2023-02-26T02:12:19.213Z,4.05
2023-02-26T02:14:56.155Z,4.07
2023-02-26T02:17:35.803Z,3.05
2023-02-26T02:20:19.847Z,3.03
2023-02-26T02:23:13.352Z,3.70
2023-02-26T02:25:49.862Z,5.00
2023-02-26T02:28:45.465Z,3.05
2023-02-26T02:31:28.734Z,3.10
2023-02-26T02:34:23.046Z,3.87
2023-02-26T02:37:01.491Z,4.85
2023-02-26T02:39:50.919Z,3.90
2023-02-26T02:42:30.469Z,3.25
2023-02-26T02:45:03.593Z,4.00
2023-02-26T02:47:34.406Z,4.60
2023-02-26T02:50:14.493Z,4.87
2023-02-26T02:53:09.553Z,3.97
2023-02-26T02:55:47.538Z,3.60
2023-02-26T02:58:18.630Z,4.82
2023-02-26T03:00:53.443Z,5.12
2023-02-26T03:03:44.673Z,3.83
2023-02-26T03:06:12.336Z,3.45
2023-02-26T03:08:41.621Z,5.62
2023-02-26T03:11:10.097Z,5.45
2023-02-26T03:13:39.651Z,4.47
2023-02-26T03:16:43.275Z,3.60
2023-02-26T03:19:31.872Z,3.33
2023-02-26T03:22:06.827Z,3.85
2023-02-26T03:24:38.873Z,4.37
2023-02-26T03:27:14.482Z,4.65
2023-02-26T03:30:01.643Z,4.50
2023-02-26T03:32:45.748Z,4.25
2023-02-26T03:35:26.807Z,4.40
2023-02-26T03:37:59.355Z,4.30
2023-02-26T03:40:31.632Z,4.43
2023-02-26T03:43:22.462Z,4.03
2023-02-26T03:45:53.737Z,4.20
2023-02-26T03:48:25.298Z,4.53
2023-02-26T03:50:58.675Z,6.18
2023-02-26T03:53:33.337Z,4.43
2023-02-26T03:56:14.193Z,3.92
2023-02-26T03:58:43.737Z,4.00
2023-02-26T04:01:23.437Z,5.78
2023-02-26T04:04:01.026Z,4.35
2023-02-26T04:06:29.548Z,3.97
2023-02-26T04:08:57.456Z,4.45
2023-02-26T04:11:25.840Z,3.97
2023-02-26T04:13:53.520Z,4.22
2023-02-26T04:16:21.510Z,3.87
2023-02-26T04:18:48.924Z,4.43
2023-02-26T04:21:21.046Z,4.60
2023-02-26T04:23:48.862Z,3.10
2023-02-26T04:26:16.344Z,4.07
2023-02-26T04:28:44.567Z,5.18
2023-02-26T04:31:12.427Z,4.20
2023-02-26T04:33:40.378Z,3.75
2023-02-26T04:36:08.429Z,4.65
2023-02-26T04:38:36.309Z,4.12
2023-02-26T04:41:05.209Z,2.90
2023-02-26T04:43:32.979Z,3.72
2023-02-26T04:46:02.078Z,4.43
2023-02-26T04:48:29.956Z,4.03
2023-02-26T04:50:57.390Z,3.78
2023-02-26T04:53:25.087Z,5.15
2023-02-26T04:55:52.668Z,3.97
2023-02-26T04:58:20.230Z,4.32
2023-02-26T05:00:49.702Z,3.87
2023-02-26T05:03:17.933Z,3.47
2023-02-26T05:05:46.296Z,4.85
2023-02-26T05:08:13.977Z,5.12
2023-02-26T05:10:41.493Z,5.30
2023-02-26T05:13:08.848Z,4.37
2023-02-26T05:15:36.531Z,4.40
2023-02-26T05:18:03.996Z,4.75
2023-02-26T05:20:31.426Z,4.60
2023-02-26T05:22:59.380Z,4.43
2023-02-26T05:25:26.766Z,4.12
2023-02-26T05:27:54.213Z,4.20
2023-02-26T05:30:23.627Z,4.35
2023-02-26T05:32:51.002Z,5.35
2023-02-26T05:35:18.419Z,5.12
2023-02-26T05:37:46.043Z,4.68
2023-02-26T05:40:14.081Z,5.53
2023-02-26T05:42:41.665Z,4.45
2023-02-26T05:45:10.105Z,4.25
2023-02-26T05:47:38.451Z,4.00
2023-02-26T05:50:06.968Z,5.00
2023-02-26T05:52:34.940Z,4.93
2023-02-26T05:55:02.651Z,4.62
2023-02-26T05:57:30.043Z,4.07
2023-02-26T05:59:57.692Z,4.78
2023-02-26T06:02:25.255Z,4.30
2023-02-26T06:04:52.903Z,4.78
2023-02-26T06:07:20.327Z,4.78
2023-02-26T06:09:47.692Z,3.65
2023-02-26T06:12:15.388Z,4.62
2023-02-26T06:14:42.888Z,4.25
2023-02-26T06:17:10.241Z,4.60
2023-02-26T06:19:37.858Z,5.82
2023-02-26T06:22:05.302Z,4.50
2023-02-26T06:24:32.760Z,4.65
2023-02-26T06:27:00.442Z,3.83
2023-02-26T06:29:27.817Z,4.35
2023-02-26T06:31:55.230Z,5.22
2023-02-26T06:34:23.074Z,3.78
2023-02-26T06:36:50.506Z,4.60
2023-02-26T06:39:17.917Z,4.07
2023-02-26T06:41:45.675Z,8.07
2023-02-26T06:44:13.065Z,5.40
2023-02-26T06:46:40.428Z,4.47
2023-02-26T06:49:08.145Z,5.65
2023-02-26T06:51:36.346Z,3.95
2023-02-26T06:54:04.719Z,4.28
2023-02-26T06:56:32.414Z,5.07
2023-02-26T06:58:59.858Z,6.95
2023-02-26T07:01:27.366Z,6.20
2023-02-26T07:03:55.182Z,4.57
2023-02-26T07:06:27.631Z,4.72
2023-02-26T07:08:56.210Z,5.32
2023-02-26T07:11:23.694Z,6.57
2023-02-26T07:13:53.799Z,6.53
2023-02-26T07:16:21.502Z,7.30
2023-02-26T07:18:48.888Z,7.72
2023-02-26T07:21:16.284Z,5.80
2023-02-26T07:23:43.941Z,5.47
2023-02-26T07:26:11.308Z,5.70
2023-02-26T07:28:38.692Z,6.43
2023-02-26T07:31:06.387Z,4.03
2023-02-26T07:33:35.022Z,4.32
2023-02-26T07:36:02.491Z,4.35
2023-02-26T07:38:30.227Z,5.62
2023-02-26T07:40:57.630Z,5.37
2023-02-26T07:43:25.208Z,4.45
2023-02-26T07:45:52.958Z,5.12
2023-02-26T07:48:20.850Z,4.00
2023-02-26T07:50:50.894Z,5.62
2023-02-26T07:53:18.920Z,4.05
2023-02-26T07:55:46.256Z,4.12
2023-02-26T07:58:13.783Z,4.93
2023-02-26T08:00:41.463Z,4.68
2023-02-26T08:03:09.121Z,4.00
2023-02-26T08:05:36.591Z,6.05
2023-02-26T08:08:04.526Z,5.22
2023-02-26T08:10:32.643Z,5.70
2023-02-26T08:13:00.311Z,4.70
2023-02-26T08:15:27.754Z,4.30
2023-02-26T08:17:55.394Z,5.53
2023-02-26T08:20:23.285Z,3.87
2023-02-26T08:22:51.266Z,5.30
2023-02-26T08:25:18.970Z,4.57
2023-02-26T08:27:46.358Z,4.62
2023-02-26T08:30:14.169Z,4.25
2023-02-26T08:32:42.582Z,7.22
2023-02-26T08:35:10.811Z,5.45
2023-02-26T08:37:38.961Z,5.12
2023-02-26T08:40:09.052Z,4.28
2023-02-26T08:42:36.760Z,4.28
2023-02-26T08:45:04.596Z,6.78
2023-02-26T08:47:33.022Z,5.30
2023-02-26T08:50:01.503Z,3.92
2023-02-26T08:52:28.982Z,5.97
2023-02-26T08:54:56.661Z,3.85
2023-02-26T08:57:24.057Z,5.32
2023-02-26T08:59:51.437Z,5.65
2023-02-26T09:02:19.087Z,7.78
2023-02-26T09:04:47.266Z,8.60
2023-02-26T09:07:15.364Z,4.22
2023-02-26T09:09:43.710Z,7.03
2023-02-26T09:12:11.152Z,4.93
2023-02-26T09:14:38.512Z,4.12
2023-02-26T09:17:06.181Z,3.00
2023-02-26T09:19:33.574Z,5.03
2023-02-26T09:22:00.981Z,5.78
2023-02-26T09:24:28.732Z,4.37
2023-02-26T09:26:56.163Z,5.53
2023-02-26T09:29:23.676Z,6.18
2023-02-26T09:31:51.885Z,5.03
2023-02-26T09:34:20.420Z,5.25
2023-02-26T09:36:47.901Z,4.10
2023-02-26T09:39:15.574Z,3.95
2023-02-26T09:41:50.573Z,4.43
2023-02-26T09:44:28.176Z,3.87
2023-02-26T09:47:00.650Z,5.43
2023-02-26T09:49:32.931Z,3.87
2023-02-26T09:52:13.335Z,4.90
2023-02-26T09:54:47.882Z,3.97
2023-02-26T09:57:36.280Z,4.32
2023-02-26T10:00:17.816Z,5.10
2023-02-26T10:02:57.928Z,4.15
2023-02-26T10:05:34.594Z,3.22
2023-02-26T10:08:10.425Z,4.85
2023-02-26T10:10:57.729Z,3.30
2023-02-26T10:13:56.079Z,3.40
2023-02-26T10:16:28.626Z,3.60
2023-02-26T10:19:18.389Z,3.17
2023-02-26T10:21:53.070Z,3.70
2023-02-26T10:24:38.148Z,2.97
2023-02-26T10:27:35.245Z,4.40
2023-02-26T10:30:10.383Z,9.02
2023-02-26T10:32:43.665Z,2.75
2023-02-26T10:35:17.080Z,3.25
2023-02-26T10:37:52.342Z,2.10
2023-02-26T10:40:38.786Z,3.80
2023-02-26T10:43:19.507Z,3.10
2023-02-26T10:45:57.373Z,2.65
2023-02-26T10:48:28.353Z,3.87
2023-02-26T10:50:58.141Z,4.15
2023-02-26T10:53:27.089Z,2.58
2023-02-26T10:56:04.532Z,2.87
2023-02-26T10:58:32.273Z,3.62
2023-02-26T11:00:59.658Z,4.40
2023-02-26T11:03:36.275Z,3.08
2023-02-26T11:06:05.199Z,3.97
2023-02-26T11:08:35.688Z,3.70
2023-02-26T11:11:04.726Z,2.65
2023-02-26T11:13:34.826Z,3.10
2023-02-26T11:16:05.694Z,3.47
2023-02-26T11:18:40.705Z,2.67
2023-02-26T11:21:09.474Z,3.35
2023-02-26T11:23:37.383Z,2.87
2023-02-26T11:26:13.909Z,2.35
2023-02-26T11:28:49.342Z,2.35
2023-02-26T11:31:19.948Z,2.12
2023-02-26T11:33:59.322Z,3.10
2023-02-26T11:36:30.545Z,2.35
2023-02-26T11:39:02.343Z,2.20
2023-02-26T11:41:30.037Z,3.40
2023-02-26T11:44:03.327Z,2.87
2023-02-26T11:46:31.155Z,3.03
2023-02-26T11:49:00.293Z,3.30
2023-02-26T11:51:29.270Z,2.75
2023-02-26T11:54:01.425Z,4.95
2023-02-26T11:59:27.646Z,3.60
2023-02-26T12:01:55.279Z,3.62
2023-02-26T12:04:27.596Z,4.60
2023-02-26T12:06:55.965Z,3.35
2023-02-26T12:09:25.377Z,3.42
2023-02-26T12:12:14.585Z,4.80
2023-02-26T12:15:11.434Z,8.10
2023-02-26T12:18:01.145Z,6.20
2023-02-26T12:20:59.877Z,4.53
2023-02-26T12:23:31.159Z,3.85
2023-02-26T12:26:28.193Z,3.40
2023-02-26T12:29:05.728Z,4.62
2023-02-26T12:31:45.913Z,4.40
2023-02-26T12:34:44.995Z,5.65
2023-02-26T12:37:36.975Z,5.18
2023-02-26T12:40:31.724Z,3.42
2023-02-26T12:43:23.281Z,4.05
2023-02-26T12:46:02.563Z,4.53
2023-02-26T12:48:45.342Z,5.28
2023-02-26T12:53:46.190Z,3.60
2023-02-26T12:56:34.877Z,5.45
2023-02-26T12:59:05.194Z,4.03
2023-02-26T13:02:01.266Z,3.40
2023-02-26T13:04:42.401Z,4.53
2023-02-26T13:07:32.614Z,5.10
2023-02-26T13:10:05.729Z,6.37
2023-02-26T13:12:49.500Z,3.85
2023-02-26T13:15:36.226Z,4.60
2023-02-26T13:18:26.651Z,4.85
2023-02-26T13:21:00.621Z,3.42
2023-02-26T13:23:36.663Z,3.47
2023-02-26T13:26:07.577Z,5.10
2023-02-26T13:28:42.866Z,4.20
2023-02-26T13:31:18.066Z,4.55
2023-02-26T13:33:46.332Z,6.32
2023-02-26T13:36:16.281Z,6.85
2023-02-26T13:38:56.610Z,4.72
2023-02-26T13:41:34.201Z,4.78
2023-02-26T13:44:12.938Z,3.95
2023-02-26T13:46:52.975Z,5.00
2023-02-26T13:49:26.040Z,5.40
2023-02-26T13:51:55.016Z,4.22
2023-02-26T13:54:22.294Z,4.20
2023-02-26T13:56:55.439Z,4.45
2023-02-26T13:59:33.226Z,3.65
2023-02-26T14:02:03.661Z,3.75
2023-02-26T14:04:33.489Z,5.20
2023-02-26T14:07:14.318Z,6.60
2023-02-26T14:10:01.289Z,4.78
2023-02-26T14:12:36.682Z,4.87
2023-02-26T14:15:13.288Z,6.68
2023-02-26T14:17:49.111Z,7.65
2023-02-26T14:20:28.725Z,9.82
2023-02-26T14:23:09.620Z,9.73
2023-02-26T14:25:48.405Z,8.15
2023-02-26T14:28:20.313Z,9.15
2023-02-26T14:30:52.073Z,9.95
2023-02-26T14:33:26.801Z,7.35
2023-02-26T14:35:54.761Z,8.15
2023-02-26T14:38:25.736Z,8.13
2023-02-26T14:40:58.011Z,6.25
2023-02-26T14:43:34.973Z,4.75
2023-02-26T14:46:03.970Z,3.97
2023-02-26T14:48:33.008Z,6.25
2023-02-26T14:51:24.845Z,4.22
2023-02-26T14:53:59.521Z,3.72
2023-02-26T14:56:38.997Z,5.35
2023-02-26T14:59:38.827Z,5.00
2023-02-26T15:02:22.981Z,5.30
2023-02-26T15:04:56.274Z,6.43
2023-02-26T15:07:42.689Z,4.93
2023-02-26T15:10:41.633Z,7.03
2023-02-26T15:13:40.459Z,4.72
2023-02-26T15:16:26.506Z,4.65
2023-02-26T15:19:09.449Z,4.65
2023-02-26T15:22:07.368Z,4.28
2023-02-26T15:24:34.778Z,3.87
2023-02-26T15:27:04.858Z,4.12
2023-02-26T15:29:37.749Z,7.30
2023-02-26T15:32:14.147Z,5.03
2023-02-26T15:35:04.720Z,8.23
2023-02-26T15:37:33.722Z,5.80
2023-02-26T15:40:05.151Z,5.18
2023-02-26T15:42:38.538Z,5.35
2023-02-26T15:45:13.575Z,7.75
2023-02-26T15:47:41.306Z,5.82
2023-02-26T15:50:14.544Z,7.70
2023-02-26T15:52:42.252Z,5.62
2023-02-26T15:55:15.079Z,5.37
2023-02-26T15:57:42.829Z,5.50
2023-02-26T16:00:16.337Z,5.78
2023-02-26T16:02:45.691Z,5.60
2023-02-26T16:05:14.702Z,7.07
2023-02-26T16:07:42.329Z,6.22
2023-02-26T16:10:20.917Z,10.32
2023-02-26T16:12:49.383Z,9.90
2023-02-26T16:15:21.274Z,7.55
2023-02-26T16:17:50.865Z,5.12
2023-02-26T16:20:21.453Z,4.95
2023-02-26T16:22:50.834Z,4.62
2023-02-26T16:25:25.109Z,6.40
2023-02-26T16:28:00.317Z,7.32
2023-02-26T16:30:36.903Z,5.28
2023-02-26T16:33:06.189Z,5.72
2023-02-26T16:35:38.642Z,10.10
2023-02-26T16:38:15.682Z,7.43
2023-02-26T16:40:44.869Z,5.30
2023-02-26T16:43:44.641Z,5.07
2023-02-26T16:46:16.537Z,5.10
2023-02-26T16:48:50.836Z,5.17
2023-02-26T16:51:22.220Z,5.80
2023-02-26T16:53:58.227Z,6.57
2023-02-26T16:56:30.040Z,8.73
2023-02-26T16:59:12.727Z,5.43
2023-02-26T17:01:45.438Z,5.37
2023-02-26T17:04:15.448Z,6.30
2023-02-26T17:06:43.500Z,5.87
2023-02-26T17:09:42.923Z,7.65
2023-02-26T17:12:15.496Z,5.00
2023-02-26T17:14:45.638Z,5.05
2023-02-26T17:17:13.613Z,5.18
2023-02-26T17:19:40.989Z,7.90
2023-02-26T17:22:13.275Z,11.12
2023-02-26T17:27:11.954Z,5.70
2023-02-26T17:29:42.367Z,8.13
2023-02-26T17:32:24.816Z,5.87
2023-02-26T17:34:52.843Z,5.30
2023-02-26T17:37:21.336Z,5.35
2023-02-26T17:39:48.725Z,5.37
2023-02-26T17:42:21.266Z,7.87
2023-02-26T17:44:50.226Z,6.93
2023-02-26T17:47:21.630Z,7.10
2023-02-26T17:49:49.650Z,7.73
2023-02-26T17:52:17.364Z,10.65
2023-02-26T17:54:44.941Z,12.77
2023-02-26T17:57:21.329Z,10.00
2023-02-26T17:59:49.314Z,6.80
2023-02-26T18:02:26.988Z,7.62
2023-02-26T18:04:54.818Z,6.25
2023-02-26T18:07:23.552Z,5.65
2023-02-26T18:09:50.904Z,6.78
2023-02-26T18:12:21.116Z,5.62
2023-02-26T18:14:49.493Z,5.18
2023-02-26T18:17:27.775Z,5.87
2023-02-26T18:19:55.500Z,6.95
2023-02-26T18:22:27.563Z,6.18
2023-02-26T18:24:55.578Z,5.82
2023-02-26T18:27:24.523Z,6.80
2023-02-26T18:29:52.477Z,7.10
2023-02-26T18:32:23.077Z,5.60
2023-02-26T18:34:51.267Z,6.30
2023-02-26T18:37:21.398Z,6.07
2023-02-26T18:39:49.737Z,8.82
2023-02-26T18:42:22.886Z,6.78
2023-02-26T18:44:51.081Z,8.82
2023-02-26T18:47:18.952Z,10.95
2023-02-26T18:49:49.162Z,11.68
2023-02-26T18:52:16.866Z,10.15
2023-02-26T18:54:45.185Z,8.50
2023-02-26T18:57:12.630Z,9.77
2023-02-26T18:59:40.267Z,9.15
2023-02-26T19:02:10.915Z,8.63
2023-02-26T19:04:38.540Z,8.93
2023-02-26T19:07:07.684Z,9.57
2023-02-26T19:09:35.515Z,7.82
2023-02-26T19:12:03.563Z,9.18
2023-02-26T19:14:31.746Z,11.12
2023-02-26T19:16:59.493Z,10.88
2023-02-26T19:19:27.308Z,9.20
2023-02-26T19:21:55.756Z,10.05
2023-02-26T19:24:23.172Z,9.15
2023-02-26T19:26:50.652Z,7.97
2023-02-26T19:29:19.968Z,8.25
2023-02-26T19:31:47.553Z,10.52
2023-02-26T19:34:15.483Z,10.05
2023-02-26T19:36:48.163Z,11.32
2023-02-26T19:41:43.697Z,9.30
2023-02-26T19:44:11.201Z,10.32
2023-02-26T19:46:38.643Z,10.00
2023-02-26T19:49:06.291Z,10.52
2023-02-26T19:51:33.677Z,7.72
2023-02-26T19:54:01.012Z,7.97
2023-02-26T19:56:28.812Z,7.22
2023-02-26T19:58:56.541Z,7.60
2023-02-26T20:01:24.085Z,8.90
2023-02-26T20:03:51.780Z,13.00
2023-02-26T20:06:20.076Z,19.00
2023-02-26T20:08:47.658Z,17.58
2023-02-26T20:11:15.343Z,14.40
2023-02-26T20:13:43.107Z,13.73
2023-02-26T20:16:11.280Z,15.90
2023-02-26T20:18:39.344Z,13.80
2023-02-26T20:21:09.533Z,15.30
2023-02-26T20:23:38.549Z,14.02
2023-02-26T20:26:09.858Z,11.88
2023-02-26T20:28:37.385Z,12.23
2023-02-26T20:31:05.908Z,17.12
2023-02-26T20:33:34.239Z,15.88
2023-02-26T20:36:02.022Z,15.38
2023-02-26T20:38:29.484Z,15.68
2023-02-26T20:40:57.149Z,15.95
2023-02-26T20:43:25.057Z,12.18
2023-02-26T20:45:55.123Z,12.25
2023-02-26T20:48:23.471Z,13.23
2023-02-26T20:50:53.553Z,15.02
2023-02-26T20:53:21.813Z,15.18
2023-02-26T20:55:49.551Z,13.50
2023-02-26T20:58:17.325Z,15.88
2023-02-26T21:00:45.006Z,13.50
2023-02-26T21:03:13.023Z,13.13
2023-02-26T21:05:41.693Z,14.15
2023-02-26T21:08:10.581Z,15.23
2023-02-26T21:10:38.441Z,11.35
2023-02-26T21:13:05.830Z,11.68
2023-02-26T21:15:33.237Z,13.75
2023-02-26T21:18:00.907Z,13.80
2023-02-26T21:20:28.392Z,11.65
2023-02-26T21:22:55.833Z,10.90
2023-02-26T21:25:23.592Z,11.07
2023-02-26T21:27:51.402Z,12.02
2023-02-26T21:30:19.897Z,12.80
2023-02-26T21:32:47.652Z,14.45
2023-02-26T21:35:16.970Z,13.23
2023-02-26T21:37:45.005Z,14.32
2023-02-26T21:40:14.535Z,14.55
2023-02-26T21:42:42.749Z,14.13
2023-02-26T21:45:10.706Z,17.27
2023-02-26T21:47:38.454Z,15.40
2023-02-26T21:50:06.676Z,17.67
2023-02-26T21:52:34.182Z,8.15
2023-02-26T21:55:02.013Z,7.00
2023-02-26T21:57:30.058Z,6.78
2023-02-26T21:59:57.866Z,8.63
2023-02-26T22:02:25.790Z,8.13
2023-02-26T22:04:53.511Z,6.90
2023-02-26T22:07:20.869Z,4.90
2023-02-26T22:09:49.059Z,7.75
2023-02-26T22:12:17.260Z,9.63
2023-02-26T22:14:44.889Z,10.93
2023-02-26T22:17:12.274Z,8.32
2023-02-26T22:19:39.988Z,10.82
2023-02-26T22:22:07.391Z,9.90
2023-02-26T22:24:34.965Z,8.05
2023-02-26T22:27:02.655Z,6.25
2023-02-26T22:29:30.045Z,6.35
2023-02-26T22:31:57.627Z,5.65
2023-02-26T22:34:25.551Z,8.60
2023-02-26T22:36:53.572Z,8.00
2023-02-26T22:39:21.517Z,5.47
2023-02-26T22:41:49.271Z,4.68
2023-02-26T22:44:16.712Z,6.00
2023-02-26T22:46:44.496Z,4.93
2023-02-26T22:49:12.104Z,4.93
2023-02-26T22:51:39.537Z,3.72
2023-02-26T22:54:06.887Z,5.45
2023-02-26T22:56:34.579Z,5.05
2023-02-26T22:59:01.960Z,3.62
2023-02-26T23:01:29.952Z,6.25
2023-02-26T23:03:59.192Z,5.70
2023-02-26T23:06:26.810Z,3.95
2023-02-26T23:08:54.216Z,5.75
2023-02-26T23:11:21.910Z,3.60
2023-02-26T23:13:49.251Z,5.07
2023-02-26T23:16:16.741Z,3.33
2023-02-26T23:18:47.927Z,5.68
2023-02-26T23:21:15.741Z,3.75
2023-02-26T23:23:43.976Z,3.37
2023-02-26T23:26:11.890Z,3.95
2023-02-26T23:28:39.225Z,4.65
2023-02-26T23:31:06.782Z,2.87
2023-02-26T23:33:35.436Z,4.43
2023-02-26T23:36:02.827Z,3.78
2023-02-26T23:38:30.359Z,2.87
2023-02-26T23:40:57.971Z,3.42
2023-02-26T23:43:25.398Z,3.22
2023-02-26T23:45:52.784Z,5.35
2023-02-26T23:48:20.695Z,4.40
2023-02-26T23:50:49.162Z,4.25
2023-02-26T23:53:16.578Z,3.60
2023-02-26T23:55:44.265Z,3.37
2023-02-26T23:58:11.656Z,3.85
